createdAt,value
2023-02-12T00:00:52.889Z,102940.63
2023-02-12T00:03:20.123Z,102942.44
2023-02-12T00:05:47.188Z,102947.78
2023-02-12T00:08:16.452Z,102946.06
2023-02-12T00:10:44.011Z,102946.16
2023-02-12T00:13:12.186Z,102950.56
2023-02-12T00:15:41.057Z,102939.19
2023-02-12T00:18:08.288Z,102939.19
2023-02-12T00:20:35.413Z,102946.28
2023-02-12T00:23:02.487Z,102939.28
2023-02-12T00:25:32.671Z,102930.50
2023-02-12T00:27:59.703Z,102930.50
2023-02-12T00:30:26.818Z,102934.91
2023-02-12T00:32:53.783Z,102935.88
2023-02-12T00:35:21.052Z,102935.88
2023-02-12T00:37:47.953Z,102935.94
2023-02-12T00:40:14.773Z,102939.50
2023-02-12T00:42:41.685Z,102935.13
2023-02-12T00:45:09.140Z,102923.66
2023-02-12T00:47:36.172Z,102922.81
2023-02-12T00:50:03.120Z,102931.66
2023-02-12T00:52:29.972Z,102927.31
2023-02-12T00:54:56.973Z,102930.84
2023-02-12T00:57:23.888Z,102930.03
2023-02-12T00:59:50.797Z,102935.34
2023-02-12T01:02:18.433Z,102941.53
2023-02-12T01:04:45.409Z,102935.38
2023-02-12T01:07:12.273Z,102926.56
2023-02-12T01:09:39.226Z,102924.84
2023-02-12T01:12:06.644Z,102918.69
2023-02-12T01:14:33.765Z,102916.97
2023-02-12T01:17:00.705Z,102921.41
2023-02-12T01:19:28.172Z,102926.69
2023-02-12T01:21:55.223Z,102924.09
2023-02-12T01:24:22.105Z,102927.59
2023-02-12T01:26:48.994Z,102924.13
2023-02-12T01:29:15.860Z,102925.06
2023-02-12T01:31:43.032Z,102921.53
2023-02-12T01:34:11.247Z,102921.53
2023-02-12T01:36:38.257Z,102927.72
2023-02-12T01:39:06.741Z,102921.53
2023-02-12T01:41:37.338Z,102920.72
2023-02-12T01:44:21.476Z,102920.72
2023-02-12T01:46:57.217Z,102920.72
2023-02-12T01:49:30.979Z,102926.03
2023-02-12T01:52:14.488Z,102916.34
2023-02-12T01:54:42.535Z,102911.94
2023-02-12T01:57:11.475Z,102917.25
2023-02-12T01:59:40.988Z,102924.31
2023-02-12T02:02:08.524Z,102921.72
2023-02-12T02:04:44.352Z,102923.44
2023-02-12T02:07:12.417Z,102928.75
2023-02-12T02:09:40.569Z,102932.31
2023-02-12T02:12:26.768Z,102922.56
2023-02-12T02:14:58.084Z,102925.22
2023-02-12T02:17:59.775Z,102933.19
2023-02-12T02:20:43.098Z,102930.53
2023-02-12T02:23:37.615Z,102924.41
2023-02-12T02:26:13.522Z,102927.00
2023-02-12T02:28:58.436Z,102930.56
2023-02-12T02:31:33.917Z,102919.06
2023-02-12T02:34:37.364Z,102925.28
2023-02-12T02:37:49.518Z,102919.09
2023-02-12T02:40:24.599Z,102920.94
2023-02-12T02:42:57.484Z,102913.81
2023-02-12T02:45:46.520Z,102919.13
2023-02-12T02:48:18.929Z,102916.47
2023-02-12T02:50:56.431Z,102921.78
2023-02-12T02:53:38.385Z,102923.56
2023-02-12T02:56:09.158Z,102921.78
2023-02-12T02:58:41.402Z,102917.41
2023-02-12T03:01:14.467Z,102920.06
2023-02-12T03:04:09.620Z,102912.13
2023-02-12T03:06:46.012Z,102913.03
2023-02-12T03:09:20.946Z,102913.03
2023-02-12T03:11:48.323Z,102914.75
2023-02-12T03:14:30.187Z,102917.47
2023-02-12T03:17:26.018Z,102913.03
2023-02-12T03:20:02.611Z,102912.19
2023-02-12T03:22:34.145Z,102907.75
2023-02-12T03:25:14.321Z,102911.34
2023-02-12T03:27:49.792Z,102915.69
2023-02-12T03:30:17.016Z,102913.94
2023-02-12T03:32:57.303Z,102917.47
2023-02-12T03:35:40.077Z,102914.84
2023-02-12T03:38:14.084Z,102911.34
2023-02-12T03:40:48.085Z,102912.22
2023-02-12T03:43:15.654Z,102918.41
2023-02-12T03:46:13.178Z,102923.72
2023-02-12T03:48:58.536Z,102926.34
2023-02-12T03:51:36.355Z,102912.28
2023-02-12T03:54:05.359Z,102928.13
2023-02-12T03:56:44.855Z,102927.31
2023-02-12T03:59:12.421Z,102927.25
2023-02-12T04:01:39.545Z,102930.78
2023-02-12T04:04:09.076Z,102929.03
2023-02-12T04:06:36.466Z,102931.69
2023-02-12T04:09:07.734Z,102925.53
2023-02-12T04:11:51.925Z,102931.69
2023-02-12T04:14:56.057Z,102929.97
2023-02-12T04:17:46.796Z,102933.47
2023-02-12T04:20:28.393Z,102923.78
2023-02-12T04:23:32.369Z,102929.03
2023-02-12T04:26:08.673Z,102916.72
2023-02-12T04:29:01.521Z,102928.19
2023-02-12T04:31:51.070Z,102928.19
2023-02-12T04:34:33.375Z,102928.19
2023-02-12T04:37:00.189Z,102924.66
2023-02-12T04:39:30.726Z,102913.19
2023-02-12T04:42:01.839Z,102926.44
2023-02-12T04:44:31.039Z,102930.84
2023-02-12T04:46:58.334Z,102927.31
2023-02-12T04:49:25.874Z,102934.38
2023-02-12T04:51:53.235Z,102928.19
2023-02-12T04:54:22.403Z,102926.44
2023-02-12T04:56:50.148Z,102929.13
2023-02-12T04:59:17.275Z,102931.72
2023-02-12T05:01:44.728Z,102941.44
2023-02-12T05:04:14.910Z,102947.63
2023-02-12T05:06:42.494Z,102941.44
2023-02-12T05:09:13.375Z,102942.38
2023-02-12T05:11:40.256Z,102952.91
2023-02-12T05:14:07.243Z,102960.88
2023-02-12T05:16:34.113Z,102949.44
2023-02-12T05:19:01.033Z,102962.63
2023-02-12T05:21:28.103Z,102954.75
2023-02-12T05:23:54.954Z,102957.38
2023-02-12T05:26:22.867Z,102960.03
2023-02-12T05:28:49.772Z,102954.75
2023-02-12T05:31:21.300Z,102955.56
2023-02-12T05:33:49.687Z,102957.38
2023-02-12T05:36:19.636Z,102958.28
2023-02-12T05:38:46.972Z,102960.03
2023-02-12T05:41:22.580Z,102954.75
2023-02-12T05:43:50.511Z,102953.81
2023-02-12T05:46:19.455Z,102948.53
2023-02-12T05:48:47.303Z,102951.16
2023-02-12T05:51:17.914Z,102952.91
2023-02-12T05:53:44.736Z,102953.81
2023-02-12T05:56:13.331Z,102948.53
2023-02-12T05:58:41.781Z,102952.91
2023-02-12T06:01:14.698Z,102945.88
2023-02-12T06:03:42.035Z,102950.31
2023-02-12T06:06:09.402Z,102952.03
2023-02-12T06:08:36.934Z,102949.41
2023-02-12T06:11:06.170Z,102946.75
2023-02-12T06:13:33.804Z,102938.78
2023-02-12T06:16:00.811Z,102939.63
2023-02-12T06:18:28.549Z,102939.59
2023-02-12T06:20:55.641Z,102931.66
2023-02-12T06:23:23.828Z,102939.56
2023-02-12T06:25:52.108Z,102941.31
2023-02-12T06:28:19.107Z,102940.50
2023-02-12T06:30:46.018Z,102947.50
2023-02-12T06:33:12.849Z,102943.03
2023-02-12T06:35:39.722Z,102944.78
2023-02-12T06:38:06.695Z,102937.72
2023-02-12T06:40:34.082Z,102937.72
2023-02-12T06:43:00.963Z,102936.84
2023-02-12T06:45:28.013Z,102923.66
2023-02-12T06:47:54.817Z,102931.66
2023-02-12T06:50:21.739Z,102926.34
2023-02-12T06:52:48.749Z,102928.94
2023-02-12T06:55:15.787Z,102936.81
2023-02-12T06:57:42.837Z,102930.59
2023-02-12T07:00:10.305Z,102929.69
2023-02-12T07:02:39.016Z,102931.41
2023-02-12T07:05:06.323Z,102936.69
2023-02-12T07:07:33.548Z,102940.25
2023-02-12T07:10:00.342Z,102949.94
2023-02-12T07:12:27.184Z,102951.69
2023-02-12T07:14:53.985Z,102946.34
2023-02-12T07:17:20.830Z,102940.19
2023-02-12T07:19:47.738Z,102952.50
2023-02-12T07:22:14.693Z,102951.63
2023-02-12T07:24:41.568Z,102950.69
2023-02-12T07:27:08.561Z,102955.09
2023-02-12T07:29:35.590Z,102955.16
2023-02-12T07:32:02.572Z,102953.31
2023-02-12T07:34:29.465Z,102966.53
2023-02-12T07:36:56.422Z,102959.50
2023-02-12T07:39:23.475Z,102955.94
2023-02-12T07:41:50.354Z,102963.00
2023-02-12T07:44:17.306Z,102965.66
2023-02-12T07:46:48.480Z,102963.06
2023-02-12T07:49:18.376Z,102968.34
2023-02-12T07:51:46.249Z,102970.19
2023-02-12T07:54:13.895Z,102975.44
2023-02-12T07:56:42.947Z,102981.66
2023-02-12T07:59:16.139Z,102986.00
2023-02-12T08:01:46.857Z,102990.31
2023-02-12T08:04:16.539Z,102983.19
2023-02-12T08:06:46.489Z,102987.53
2023-02-12T08:09:17.201Z,102991.06
2023-02-12T08:11:45.036Z,102994.56
2023-02-12T08:14:14.110Z,102989.25
2023-02-12T08:16:43.001Z,102991.00
2023-02-12T08:19:19.086Z,102994.53
2023-02-12T08:21:57.544Z,102987.47
2023-02-12T08:24:25.521Z,102999.75
2023-02-12T08:26:52.772Z,102999.75
2023-02-12T08:29:23.018Z,102999.72
2023-02-12T08:31:51.359Z,103006.78
2023-02-12T08:34:24.014Z,103010.31
2023-02-12T08:36:54.333Z,103017.31
2023-02-12T08:39:21.908Z,103016.44
2023-02-12T08:41:49.440Z,103021.72
2023-02-12T08:44:17.263Z,103016.38
2023-02-12T08:46:47.252Z,103012.00
2023-02-12T08:49:22.867Z,103017.25
2023-02-12T08:51:52.451Z,103012.84
2023-02-12T08:54:24.055Z,103011.13
2023-02-12T08:56:54.694Z,103009.38
2023-02-12T08:59:21.641Z,103013.78
2023-02-12T09:01:51.446Z,103014.72
2023-02-12T09:04:29.262Z,103017.38
2023-02-12T09:06:56.508Z,103023.50
2023-02-12T09:09:23.862Z,103019.09
2023-02-12T09:11:51.244Z,103019.09
2023-02-12T09:14:24.662Z,103021.75
2023-02-12T09:16:55.078Z,103009.41
2023-02-12T09:19:22.638Z,103012.06
2023-02-12T09:21:56.050Z,103010.25
2023-02-12T09:24:23.422Z,103012.03
2023-02-12T09:26:50.417Z,103015.56
2023-02-12T09:29:17.285Z,103012.00
2023-02-12T09:31:44.523Z,103002.34
2023-02-12T09:34:11.451Z,103017.31
2023-02-12T09:36:38.286Z,103014.66
2023-02-12T09:39:05.815Z,103008.50
2023-02-12T09:42:03.576Z,103015.56
2023-02-12T09:44:38.134Z,103004.88
2023-02-12T09:47:15.892Z,103006.63
2023-02-12T09:50:04.694Z,103010.09
2023-02-12T09:52:31.649Z,103008.28
2023-02-12T09:54:59.406Z,103012.72
2023-02-12T09:57:33.711Z,103007.47
2023-02-12T10:00:12.066Z,103015.44
2023-02-12T10:02:40.989Z,103015.44
2023-02-12T10:05:20.794Z,103005.69
2023-02-12T10:07:57.001Z,103005.75
2023-02-12T10:10:26.899Z,103011.00
2023-02-12T10:12:56.518Z,103008.34
2023-02-12T10:15:36.149Z,103004.81
2023-02-12T10:18:33.066Z,103002.22
2023-02-12T10:21:13.010Z,103001.81
2023-02-12T10:24:14.814Z,102996.81
2023-02-12T10:26:51.603Z,103001.03
2023-02-12T10:29:23.321Z,102998.25
2023-02-12T10:32:31.991Z,103002.63
2023-02-12T10:35:00.309Z,103001.72
2023-02-12T10:37:49.380Z,102996.38
2023-02-12T10:40:30.638Z,102989.25
2023-02-12T10:42:58.267Z,102990.19
2023-02-12T10:45:36.979Z,102987.53
2023-02-12T10:48:24.751Z,102983.94
2023-02-12T10:51:01.037Z,102981.28
2023-02-12T10:53:57.125Z,102980.78
2023-02-12T10:56:26.037Z,102986.91
2023-02-12T10:58:57.897Z,102992.09
2023-02-12T11:01:37.052Z,102985.91
2023-02-12T11:04:27.350Z,102985.78
2023-02-12T11:07:06.301Z,102976.91
2023-02-12T11:09:40.974Z,102979.53
2023-02-12T11:12:32.249Z,102975.97
2023-02-12T11:15:15.808Z,102976.69
2023-02-12T11:17:46.701Z,102971.22
2023-02-12T11:20:16.815Z,102972.91
2023-02-12T11:22:51.137Z,102972.81
2023-02-12T11:25:18.754Z,102971.09
2023-02-12T11:27:45.754Z,102964.03
2023-02-12T11:30:13.427Z,102967.63
2023-02-12T11:32:40.396Z,102969.41
2023-02-12T11:35:18.632Z,102965.03
2023-02-12T11:37:47.528Z,102968.59
2023-02-12T11:40:28.251Z,102966.38
2023-02-12T11:42:59.475Z,102971.16
2023-02-12T11:45:30.414Z,102965.03
2023-02-12T11:47:58.094Z,102971.16
2023-02-12T11:50:29.051Z,102957.28
2023-02-12T11:53:09.710Z,102953.97
